Hawesville, Kentucky
Current Conditions -  °F | °C
As of 5:56 AM on Monday 24 Nov 2014 (Local Time) from KOWB Reporting Station
Overcast Overcast  
Wind Chill: 16°   Ceiling: 3500
Heat Index: 16°   Visibility: 7mi
Dew Point: 12°   Wind: 23mph
Humidity: 75%   Direction: 230°SW
Pressure: 29.33"   Gusts: 32mph
Location:  37.9°N, 86.75°W
Report Text: KOWB 241156Z 23020G28KT 7SM BKN035 OVC085 16/12 A2933 RMK AO2 53006 70078 T01610116 10166 20155 SLP932
Loading
Personal Weather Stations






























Interactive Weather Map New forecast layout! Learn more

10-Day Weather Forecast

Advertisements
Track Severe Weather on mobile